Time;durP1;ratioP1;P1;durP2;ratioP2;P2;SDS_P1;SDS_P2;PMS_P1;PMS_P2;Temp;Humidity;BMP_temperature;BMP_pressure;BME280_temperature;BME280_humidity;BME280_pressure;Samples;Min_cycle;Max_cycle;Signal;HPM_P1;HPM_P2
2022/04/30 00:02:09;;;;;;;;;;;12.00;99.90;;;;;;5066526;28;19921;-70
2022/04/30 00:04:36;;;;;;;;;;;11.90;99.90;;;;;;5066592;28;19921;-70
2022/04/30 00:07:03;;;;;;;;;;;11.80;99.90;;;;;;5066359;28;20291;-70
2022/04/30 00:09:29;;;;;;;;;;;11.80;99.90;;;;;;5066263;28;19921;-69
2022/04/30 00:11:58;;;;;;;;;;;11.80;99.90;;;;;;5066701;28;19920;-69
2022/04/30 00:14:25;;;;;;;;;;;11.80;99.90;;;;;;5066368;28;19925;-69
2022/04/30 00:16:51;;;;;;;;;;;11.70;99.90;;;;;;5066445;28;19921;-70
2022/04/30 00:19:19;;;;;;;;;;;11.60;99.90;;;;;;5066366;28;19921;-70
2022/04/30 00:21:45;;;;;;;;;;;11.60;99.90;;;;;;5066648;28;19925;-70
2022/04/30 00:24:12;;;;;;;;;;;11.60;99.90;;;;;;5066527;28;20023;-70
2022/04/30 00:26:39;;;;;;;;;;;11.60;99.90;;;;;;5065648;28;19920;-69
2022/04/30 00:29:07;;;;;;;;;;;11.60;99.90;;;;;;5066344;28;19921;-69
2022/04/30 00:31:35;;;;;;;;;;;11.60;99.90;;;;;;5065609;28;19921;-70
2022/04/30 00:34:01;;;;;;;;;;;11.70;99.90;;;;;;5066376;28;19921;-69
2022/04/30 00:36:28;;;;;;;;;;;11.70;99.90;;;;;;5065387;28;19995;-70
2022/04/30 00:38:55;;;;;;;;;;;11.60;99.90;;;;;;5065996;28;19921;-70
2022/04/30 00:41:23;;;;;;;;;;;11.60;99.90;;;;;;5066266;28;19927;-69
2022/04/30 00:43:51;;;;;;;;;;;11.60;99.90;;;;;;5066307;28;19966;-69
2022/04/30 00:46:20;;;;;;;;;;;11.60;99.90;;;;;;5065669;28;19921;-69
2022/04/30 00:48:47;;;;;;;;;;;11.60;99.90;;;;;;5066307;28;19921;-69
2022/04/30 00:51:14;;;;;;;;;;;11.60;99.90;;;;;;5065953;28;20117;-70
2022/04/30 00:53:41;;;;;;;;;;;11.60;99.90;;;;;;5066661;28;19956;-69
2022/04/30 00:56:09;;;;;;;;;;;11.60;99.90;;;;;;5064633;28;19921;-69
2022/04/30 00:58:36;;;;;;;;;;;11.50;99.90;;;;;;5065859;28;19920;-70
2022/04/30 01:01:04;;;;;;;;;;;11.50;99.90;;;;;;5066085;28;19925;-69
2022/04/30 01:03:32;;;;;;;;;;;11.50;99.90;;;;;;5065870;28;19927;-69
2022/04/30 01:05:59;;;;;;;;;;;11.50;99.90;;;;;;5064949;28;19920;-69
2022/04/30 01:08:27;;;;;;;;;;;11.50;99.90;;;;;;5065008;28;19921;-70
2022/04/30 01:10:54;;;;;;;;;;;11.40;99.90;;;;;;5065805;28;19920;-70
2022/04/30 01:13:20;;;;;;;;;;;11.40;99.90;;;;;;5065404;28;19927;-70
2022/04/30 01:15:47;;;;;;;;;;;11.20;99.90;;;;;;5065510;28;19928;-70
2022/04/30 01:18:14;;;;;;;;;;;11.20;99.90;;;;;;5065129;28;19928;-69
2022/04/30 01:20:46;;;;;;;;;;;11.20;99.90;;;;;;5065487;28;19921;-70
2022/04/30 01:23:15;;;;;;;;;;;11.10;99.90;;;;;;5065417;28;19920;-69
2022/04/30 01:25:42;;;;;;;;;;;11.10;99.90;;;;;;5065327;28;20104;-70
2022/04/30 01:28:11;;;;;;;;;;;11.00;99.90;;;;;;5065170;28;19963;-69
2022/04/30 01:30:39;;;;;;;;;;;11.00;99.90;;;;;;5063945;28;20212;-70
2022/04/30 01:38:35;;;;;;;;;;;11.00;99.90;;;;;;5064786;28;19923;-70
2022/04/30 01:41:02;;;;;;;;;;;11.00;99.90;;;;;;5064746;28;20254;-70
2022/04/30 01:43:28;;;;;;;;;;;11.00;99.90;;;;;;5064728;28;19927;-70
2022/04/30 01:45:55;;;;;;;;;;;10.90;99.90;;;;;;5064540;28;19920;-70
2022/04/30 01:48:22;;;;;;;;;;;11.00;99.90;;;;;;5064092;28;19920;-70
2022/04/30 01:50:49;;;;;;;;;;;11.00;99.90;;;;;;5064755;28;19920;-70
2022/04/30 01:53:15;;;;;;;;;;;11.00;99.90;;;;;;5065120;28;19921;-70
2022/04/30 01:55:43;;;;;;;;;;;11.00;99.90;;;;;;5063540;28;19920;-70
2022/04/30 01:58:10;;;;;;;;;;;10.90;99.90;;;;;;5064449;28;20212;-69
2022/04/30 02:00:36;;;;;;;;;;;10.90;99.90;;;;;;5064367;28;19985;-70
2022/04/30 02:03:05;;;;;;;;;;;10.90;99.90;;;;;;5064444;28;20139;-70
2022/04/30 02:05:32;;;;;;;;;;;10.80;99.90;;;;;;5063613;28;19928;-70
2022/04/30 02:08:00;;;;;;;;;;;10.80;99.90;;;;;;5064157;28;19921;-69
2022/04/30 02:10:27;;;;;;;;;;;10.80;99.90;;;;;;5064409;28;19920;-70
2022/04/30 02:12:55;;;;;;;;;;;10.80;99.90;;;;;;5064318;28;20208;-70
2022/04/30 02:15:22;;;;;;;;;;;10.80;99.90;;;;;;5063780;28;19927;-69
2022/04/30 02:17:49;;;;;;;;;;;10.80;99.90;;;;;;5044091;28;19927;-70
2022/04/30 02:20:22;;;;;;;;;;;10.80;99.90;;;;;;5063631;28;19927;-69
2022/04/30 02:22:49;;;;;;;;;;;10.80;99.90;;;;;;5063817;28;19966;-69
2022/04/30 02:25:16;;;;;;;;;;;10.80;99.90;;;;;;5063907;28;19920;-69
2022/04/30 02:27:44;;;;;;;;;;;10.80;99.90;;;;;;5063507;28;19958;-69
2022/04/30 02:30:14;;;;;;;;;;;10.80;99.90;;;;;;5064060;28;20111;-70
2022/04/30 02:32:41;;;;;;;;;;;10.70;99.90;;;;;;5063551;28;19978;-69
2022/04/30 02:35:08;;;;;;;;;;;10.70;99.90;;;;;;5063495;28;19928;-69
2022/04/30 02:37:35;;;;;;;;;;;10.70;99.90;;;;;;5063831;28;19927;-70
2022/04/30 02:40:01;;;;;;;;;;;10.70;99.90;;;;;;5063449;28;20171;-69
2022/04/30 02:42:28;;;;;;;;;;;10.70;99.90;;;;;;5063782;28;19921;-69
2022/04/30 02:44:55;;;;;;;;;;;10.70;99.90;;;;;;5063732;28;19928;-70
2022/04/30 02:47:23;;;;;;;;;;;10.70;99.90;;;;;;5063019;28;19928;-70
2022/04/30 02:49:49;;;;;;;;;;;10.70;99.90;;;;;;5063206;28;19936;-69
2022/04/30 02:52:16;;;;;;;;;;;10.70;99.90;;;;;;5063488;28;20112;-69
2022/04/30 02:54:42;;;;;;;;;;;10.70;99.90;;;;;;5063592;28;19921;-70
2022/04/30 02:57:09;;;;;;;;;;;10.60;99.90;;;;;;5063034;28;19927;-70
2022/04/30 03:02:19;;;;;;;;;;;10.60;99.90;;;;;;5063398;28;19959;-69
2022/04/30 03:04:47;;;;;;;;;;;10.60;99.90;;;;;;5062591;28;20204;-70
2022/04/30 03:07:14;;;;;;;;;;;10.50;99.90;;;;;;5063321;28;19929;-70
2022/04/30 03:09:41;;;;;;;;;;;10.50;99.90;;;;;;5063304;28;19920;-70
2022/04/30 03:12:09;;;;;;;;;;;10.50;99.90;;;;;;5063145;28;19921;-70
2022/04/30 03:14:35;;;;;;;;;;;10.50;99.90;;;;;;5063287;28;20124;-69
2022/04/30 03:22:33;;;;;;;;;;;10.40;99.90;;;;;;5043308;28;19928;-69
2022/04/30 03:24:59;;;;;;;;;;;10.40;99.90;;;;;;5043137;28;19928;-70
2022/04/30 03:27:26;;;;;;;;;;;10.40;99.90;;;;;;5046076;28;20147;-70
2022/04/30 03:29:52;;;;;;;;;;;10.30;99.90;;;;;;5063063;28;19927;-70
2022/04/30 03:32:20;;;;;;;;;;;10.20;99.90;;;;;;5061994;28;20204;-70
2022/04/30 03:34:47;;;;;;;;;;;10.20;99.90;;;;;;5062937;28;19943;-70
2022/04/30 03:37:14;;;;;;;;;;;10.10;99.90;;;;;;5062877;28;19921;-70
2022/04/30 03:39:41;;;;;;;;;;;10.00;99.90;;;;;;5062611;28;20155;-70
2022/04/30 03:42:08;;;;;;;;;;;10.00;99.90;;;;;;5063314;28;19929;-70
2022/04/30 03:44:35;;;;;;;;;;;10.00;99.90;;;;;;5063176;28;19956;-70
2022/04/30 03:47:02;;;;;;;;;;;10.00;99.90;;;;;;5062519;28;19920;-70
2022/04/30 03:49:28;;;;;;;;;;;10.00;99.90;;;;;;5062947;28;20116;-70
2022/04/30 03:51:55;;;;;;;;;;;10.00;99.90;;;;;;5062778;28;19921;-70
2022/04/30 03:54:23;;;;;;;;;;;10.10;99.90;;;;;;5062743;28;19983;-70
2022/04/30 03:56:55;;;;;;;;;;;10.10;99.90;;;;;;5061547;28;19943;-70
2022/04/30 03:59:22;;;;;;;;;;;10.10;99.90;;;;;;5063388;28;19984;-69
2022/04/30 04:01:49;;;;;;;;;;;10.10;99.90;;;;;;5062944;28;19920;-70
2022/04/30 04:04:15;;;;;;;;;;;10.10;99.90;;;;;;5063132;28;20109;-70
2022/04/30 04:06:43;;;;;;;;;;;10.20;99.90;;;;;;5062469;28;19928;-70
2022/04/30 04:09:10;;;;;;;;;;;10.10;99.90;;;;;;5063130;28;19921;-69
2022/04/30 04:11:38;;;;;;;;;;;10.00;99.90;;;;;;5065729;28;19921;-69
2022/04/30 04:19:32;;;;;;;;;;;9.80;99.90;;;;;;5046672;28;19940;-69
2022/04/30 04:22:00;;;;;;;;;;;9.70;99.90;;;;;;5046895;28;20143;-69
2022/04/30 04:27:18;;;;;;;;;;;9.60;99.90;;;;;;5060577;28;19924;-70
2022/04/30 04:29:45;;;;;;;;;;;9.40;99.90;;;;;;5066611;28;19920;-71
2022/04/30 04:32:18;;;;;;;;;;;9.40;99.90;;;;;;5065057;28;19925;-71
2022/04/30 04:34:44;;;;;;;;;;;9.40;99.90;;;;;;5066546;28;19985;-71
2022/04/30 04:37:11;;;;;;;;;;;9.30;99.90;;;;;;5066149;28;19928;-71
2022/04/30 04:39:38;;;;;;;;;;;9.40;99.90;;;;;;5066334;28;19928;-70
2022/04/30 04:42:06;;;;;;;;;;;9.40;99.90;;;;;;5065840;28;19963;-71
2022/04/30 04:44:35;;;;;;;;;;;9.40;99.90;;;;;;5066138;28;19920;-71
2022/04/30 04:47:01;;;;;;;;;;;9.50;99.90;;;;;;5065634;28;20226;-71
2022/04/30 04:49:28;;;;;;;;;;;9.50;99.90;;;;;;5066108;28;20230;-71
2022/04/30 04:51:55;;;;;;;;;;;9.60;99.90;;;;;;5066365;28;19921;-70
2022/04/30 04:54:22;;;;;;;;;;;9.60;99.90;;;;;;5066402;28;19920;-71
2022/04/30 04:56:48;;;;;;;;;;;9.70;99.90;;;;;;5065023;28;20212;-71
2022/04/30 04:59:15;;;;;;;;;;;9.70;99.90;;;;;;5066224;28;19927;-71
2022/04/30 05:01:43;;;;;;;;;;;9.80;99.90;;;;;;5066048;28;19920;-71
2022/04/30 05:04:10;;;;;;;;;;;9.80;99.90;;;;;;5065816;28;19920;-70
2022/04/30 05:06:36;;;;;;;;;;;9.90;99.90;;;;;;5065531;28;19921;-71
2022/04/30 05:09:03;;;;;;;;;;;9.80;99.90;;;;;;5065681;28;19928;-71
2022/04/30 05:11:30;;;;;;;;;;;9.70;99.90;;;;;;5065655;28;20208;-71
2022/04/30 05:13:56;;;;;;;;;;;9.70;99.90;;;;;;5065632;28;19927;-70
2022/04/30 05:16:23;;;;;;;;;;;9.60;99.90;;;;;;5065584;28;20143;-71
2022/04/30 05:18:51;;;;;;;;;;;9.50;99.90;;;;;;5065661;28;19920;-70
2022/04/30 05:21:18;;;;;;;;;;;9.50;99.90;;;;;;5065352;28;19921;-71
2022/04/30 05:23:45;;;;;;;;;;;9.60;99.90;;;;;;5064917;28;19921;-71
2022/04/30 05:26:11;;;;;;;;;;;9.60;99.90;;;;;;5064959;28;19921;-71
2022/04/30 05:28:38;;;;;;;;;;;9.60;99.90;;;;;;5065094;28;19921;-71
2022/04/30 05:31:06;;;;;;;;;;;9.60;99.90;;;;;;5065042;28;20112;-72
2022/04/30 05:33:33;;;;;;;;;;;9.80;99.90;;;;;;5065599;28;19921;-72
2022/04/30 05:36:01;;;;;;;;;;;9.80;99.90;;;;;;5064934;28;20279;-71
2022/04/30 05:38:28;;;;;;;;;;;9.80;99.90;;;;;;5065246;28;20000;-70
2022/04/30 05:40:54;;;;;;;;;;;9.90;99.90;;;;;;5064742;28;19921;-71
2022/04/30 05:43:22;;;;;;;;;;;9.90;99.90;;;;;;5063948;28;19963;-70
2022/04/30 05:45:49;;;;;;;;;;;9.90;99.90;;;;;;5064523;28;20143;-70
2022/04/30 05:48:15;;;;;;;;;;;10.00;99.90;;;;;;5065034;28;19927;-70
2022/04/30 05:50:42;;;;;;;;;;;10.00;99.90;;;;;;5064809;28;19920;-70
2022/04/30 05:53:14;;;;;;;;;;;10.10;99.90;;;;;;5064979;28;19942;-71
2022/04/30 05:55:40;;;;;;;;;;;10.20;99.90;;;;;;5064269;28;19921;-70
2022/04/30 05:58:07;;;;;;;;;;;10.20;99.90;;;;;;5064617;28;20231;-70
2022/04/30 06:00:33;;;;;;;;;;;10.20;99.90;;;;;;5064714;28;19927;-70
2022/04/30 06:03:01;;;;;;;;;;;10.30;99.90;;;;;;5063483;28;19952;-70
2022/04/30 06:05:28;;;;;;;;;;;10.30;99.90;;;;;;5064540;28;19921;-70
2022/04/30 06:07:54;;;;;;;;;;;10.30;99.90;;;;;;5064793;28;19956;-70
2022/04/30 06:10:22;;;;;;;;;;;10.40;99.90;;;;;;5064793;28;19920;-70
2022/04/30 06:12:49;;;;;;;;;;;10.40;99.90;;;;;;5064779;28;19921;-71
2022/04/30 06:15:16;;;;;;;;;;;10.50;99.90;;;;;;5064584;28;19920;-71
2022/04/30 06:17:42;;;;;;;;;;;10.50;99.90;;;;;;5064428;28;19921;-70
2022/04/30 06:20:10;;;;;;;;;;;10.60;99.90;;;;;;5064766;28;19924;-70
2022/04/30 06:22:36;;;;;;;;;;;10.70;99.90;;;;;;5064771;28;19921;-71
2022/04/30 06:25:03;;;;;;;;;;;10.70;99.90;;;;;;5064514;28;19929;-71
2022/04/30 06:27:31;;;;;;;;;;;10.80;99.90;;;;;;5064315;28;19927;-70
2022/04/30 06:29:57;;;;;;;;;;;10.80;99.90;;;;;;5064400;28;19921;-71
2022/04/30 06:32:25;;;;;;;;;;;10.90;99.90;;;;;;5063488;28;19920;-69
2022/04/30 06:34:52;;;;;;;;;;;11.00;99.90;;;;;;5064344;28;19924;-68
2022/04/30 06:37:18;;;;;;;;;;;11.10;99.90;;;;;;5064056;28;19927;-68
2022/04/30 06:39:45;;;;;;;;;;;11.20;99.90;;;;;;5064250;28;19920;-68
2022/04/30 06:42:12;;;;;;;;;;;11.20;99.90;;;;;;5064035;28;19927;-68
2022/04/30 06:44:39;;;;;;;;;;;11.30;99.90;;;;;;5064192;28;19929;-69
2022/04/30 06:47:06;;;;;;;;;;;11.50;99.90;;;;;;5063917;28;20146;-69
2022/04/30 06:49:33;;;;;;;;;;;11.50;99.90;;;;;;5063932;28;19921;-70
2022/04/30 06:51:59;;;;;;;;;;;11.60;99.90;;;;;;5064082;28;19920;-69
2022/04/30 06:57:12;;;;;;;;;;;11.80;99.90;;;;;;5062885;28;19954;-69
2022/04/30 06:59:41;;;;;;;;;;;11.90;99.90;;;;;;5063486;28;19944;-68
2022/04/30 07:02:13;;;;;;;;;;;12.00;99.90;;;;;;5064012;28;19920;-70
2022/04/30 07:04:41;;;;;;;;;;;12.20;99.90;;;;;;5063018;28;19921;-69
2022/04/30 07:07:08;;;;;;;;;;;12.30;99.90;;;;;;5063203;28;19943;-68
2022/04/30 07:09:35;;;;;;;;;;;12.40;99.90;;;;;;5063560;28;19921;-69
2022/04/30 07:12:04;;;;;;;;;;;12.40;99.90;;;;;;5063740;28;19921;-69
2022/04/30 07:14:31;;;;;;;;;;;12.40;99.90;;;;;;5063535;28;19920;-69
2022/04/30 07:16:59;;;;;;;;;;;12.50;99.90;;;;;;5063060;28;19995;-69
2022/04/30 07:19:26;;;;;;;;;;;12.50;99.90;;;;;;5063567;28;19925;-69
2022/04/30 07:21:52;;;;;;;;;;;12.60;99.90;;;;;;5063545;28;19921;-69
2022/04/30 07:24:19;;;;;;;;;;;12.70;99.90;;;;;;5063363;28;19925;-69
2022/04/30 07:26:45;;;;;;;;;;;12.80;99.90;;;;;;5062998;28;20284;-70
2022/04/30 07:29:12;;;;;;;;;;;12.90;99.90;;;;;;5063773;28;19927;-69
2022/04/30 07:31:39;;;;;;;;;;;13.00;99.90;;;;;;5061474;28;19921;-69
2022/04/30 07:34:09;;;;;;;;;;;13.10;99.90;;;;;;5061122;28;19925;-70
2022/04/30 07:36:35;;;;;;;;;;;13.20;99.90;;;;;;5062881;28;19921;-68
2022/04/30 07:39:02;;;;;;;;;;;13.30;99.90;;;;;;5063268;28;19927;-69
2022/04/30 07:41:29;;;;;;;;;;;13.40;99.90;;;;;;5063151;28;19921;-69
2022/04/30 07:43:55;;;;;;;;;;;13.50;99.90;;;;;;5063529;28;20151;-69
2022/04/30 07:46:23;;;;;;;;;;;13.50;99.90;;;;;;5065203;28;19921;-69
2022/04/30 07:48:49;;;;;;;;;;;13.60;99.90;;;;;;5066950;28;20112;-69
2022/04/30 07:51:19;;;;;;;;;;;13.70;99.90;;;;;;5067550;28;19920;-69
2022/04/30 07:53:45;;;;;;;;;;;13.70;99.90;;;;;;5067151;28;19925;-69
2022/04/30 07:56:12;;;;;;;;;;;13.80;99.90;;;;;;5066855;28;20280;-69
2022/04/30 07:58:39;;;;;;;;;;;13.90;99.90;;;;;;5066272;28;19920;-69
2022/04/30 08:01:05;;;;;;;;;;;14.00;99.90;;;;;;5066782;28;19928;-72
2022/04/30 08:03:33;;;;;;;;;;;14.00;99.90;;;;;;5065496;28;19956;-73
2022/04/30 08:05:59;;;;;;;;;;;14.10;99.90;;;;;;5066266;28;19924;-68
2022/04/30 08:08:27;;;;;;;;;;;14.10;99.90;;;;;;5053783;28;20291;-69
2022/04/30 08:10:54;;;;;;;;;;;14.20;99.90;;;;;;5066767;28;19921;-70
2022/04/30 08:13:20;;;;;;;;;;;14.20;99.90;;;;;;5066603;28;19927;-70
2022/04/30 08:15:47;;;;;;;;;;;14.30;99.90;;;;;;5065927;28;19921;-69
2022/04/30 08:18:14;;;;;;;;;;;14.30;99.90;;;;;;5066223;28;20213;-69
2022/04/30 08:20:40;;;;;;;;;;;14.40;99.90;;;;;;5065804;28;20112;-69
2022/04/30 08:23:13;;;;;;;;;;;14.40;99.90;;;;;;5051721;28;19920;-73
2022/04/30 08:25:41;;;;;;;;;;;14.40;99.90;;;;;;5066450;28;19987;-70
2022/04/30 08:28:08;;;;;;;;;;;14.40;99.90;;;;;;5066549;28;19927;-70
2022/04/30 08:30:35;;;;;;;;;;;14.40;99.90;;;;;;5066449;28;19921;-71
2022/04/30 08:33:01;;;;;;;;;;;14.40;99.90;;;;;;5066374;28;19959;-71
2022/04/30 08:35:28;;;;;;;;;;;14.40;99.90;;;;;;5065104;28;19921;-70
2022/04/30 08:37:55;;;;;;;;;;;14.50;99.90;;;;;;5065724;28;20216;-70
2022/04/30 08:40:22;;;;;;;;;;;14.50;99.90;;;;;;5065730;28;19985;-70
2022/04/30 08:42:50;;;;;;;;;;;14.60;99.90;;;;;;5065372;28;19967;-71
2022/04/30 08:45:16;;;;;;;;;;;14.80;99.90;;;;;;5065684;28;19921;-71
2022/04/30 08:47:45;;;;;;;;;;;14.80;99.90;;;;;;5065771;28;20279;-70
2022/04/30 08:50:12;;;;;;;;;;;14.90;99.90;;;;;;5065441;28;19925;-71
2022/04/30 08:52:39;;;;;;;;;;;15.00;99.90;;;;;;5065560;28;19927;-70
2022/04/30 08:55:07;;;;;;;;;;;15.00;99.90;;;;;;5065510;28;19928;-71
2022/04/30 08:57:34;;;;;;;;;;;15.10;99.90;;;;;;5064284;28;19953;-70
2022/04/30 09:00:02;;;;;;;;;;;15.20;99.90;;;;;;5065572;28;19927;-72
2022/04/30 09:02:28;;;;;;;;;;;15.20;99.90;;;;;;5065311;28;20224;-70
2022/04/30 09:04:55;;;;;;;;;;;15.20;99.90;;;;;;5064862;28;19927;-69
2022/04/30 09:07:22;;;;;;;;;;;15.20;99.90;;;;;;5064745;28;20208;-70
2022/04/30 09:09:53;;;;;;;;;;;15.30;99.90;;;;;;5065302;28;19921;-69
2022/04/30 09:12:20;;;;;;;;;;;15.40;99.90;;;;;;5065284;28;19928;-70
2022/04/30 09:14:47;;;;;;;;;;;15.40;99.90;;;;;;5063935;28;19925;-70
2022/04/30 09:17:22;;;;;;;;;;;15.50;99.90;;;;;;5064634;28;19927;-70
2022/04/30 09:19:54;;;;;;;;;;;15.40;99.90;;;;;;5064879;28;19921;-70
2022/04/30 09:22:28;;;;;;;;;;;15.50;99.90;;;;;;5065580;28;19948;-68
2022/04/30 09:24:55;;;;;;;;;;;15.60;99.90;;;;;;5055044;28;19951;-69
2022/04/30 09:27:22;;;;;;;;;;;15.80;99.90;;;;;;5065131;28;19925;-69
2022/04/30 09:29:48;;;;;;;;;;;15.80;99.90;;;;;;5064688;28;19927;-70
2022/04/30 09:32:18;;;;;;;;;;;16.00;99.90;;;;;;5065307;28;20122;-70
2022/04/30 09:37:42;;;;;;;;;;;16.00;99.90;;;;;;5064772;28;20306;-69
2022/04/30 09:40:17;;;;;;;;;;;16.00;99.90;;;;;;5059773;28;19935;-69
2022/04/30 09:42:47;;;;;;;;;;;16.00;99.90;;;;;;5064497;28;19920;-69
2022/04/30 09:45:22;;;;;;;;;;;16.00;99.90;;;;;;5064447;28;19920;-70
2022/04/30 09:47:56;;;;;;;;;;;16.10;99.90;;;;;;5065212;28;19920;-69
2022/04/30 09:55:53;;;;;;;;;;;16.00;99.90;;;;;;5061944;28;19923;-70
2022/04/30 09:58:21;;;;;;;;;;;15.80;99.90;;;;;;5064842;28;19924;-70
2022/04/30 10:00:48;;;;;;;;;;;15.80;99.90;;;;;;5054357;28;20216;-70
2022/04/30 10:03:16;;;;;;;;;;;15.80;99.90;;;;;;5064643;28;20213;-70
2022/04/30 10:05:43;;;;;;;;;;;15.80;99.90;;;;;;5064182;28;19991;-69
2022/04/30 10:08:10;;;;;;;;;;;15.80;99.90;;;;;;5064308;28;19927;-70
2022/04/30 10:10:42;;;;;;;;;;;15.80;99.90;;;;;;5064676;28;20117;-71
2022/04/30 10:13:11;;;;;;;;;;;15.70;99.90;;;;;;5064902;28;19921;-69
2022/04/30 10:15:39;;;;;;;;;;;15.70;99.90;;;;;;5064401;28;19944;-70
2022/04/30 10:18:08;;;;;;;;;;;15.70;99.90;;;;;;5063915;28;19920;-70
2022/04/30 10:20:36;;;;;;;;;;;15.70;99.90;;;;;;5064540;28;19996;-71
2022/04/30 10:23:03;;;;;;;;;;;15.60;99.90;;;;;;5064206;28;19921;-70
2022/04/30 10:25:33;;;;;;;;;;;15.60;99.90;;;;;;5063902;28;19921;-71
2022/04/30 10:28:04;;;;;;;;;;;15.60;99.90;;;;;;5064081;28;19921;-70
2022/04/30 10:30:30;;;;;;;;;;;15.60;99.90;;;;;;5064212;28;19928;-70
2022/04/30 10:33:00;;;;;;;;;;;15.60;99.90;;;;;;5064175;28;19927;-70
2022/04/30 10:35:30;;;;;;;;;;;15.60;99.90;;;;;;5063276;28;19920;-70
2022/04/30 10:38:08;;;;;;;;;;;15.60;99.90;;;;;;5063958;28;19921;-70
2022/04/30 10:40:39;;;;;;;;;;;15.50;99.90;;;;;;5063554;28;19921;-69
2022/04/30 10:43:14;;;;;;;;;;;15.50;99.90;;;;;;5063163;28;20199;-70
2022/04/30 10:45:43;;;;;;;;;;;15.50;99.90;;;;;;5063122;28;19920;-71
2022/04/30 10:48:15;;;;;;;;;;;15.50;99.90;;;;;;5061703;28;22116;-71
2022/04/30 10:50:41;;;;;;;;;;;15.40;99.90;;;;;;5063738;28;19927;-69
2022/04/30 10:53:11;;;;;;;;;;;15.40;99.90;;;;;;5063486;28;20112;-70
2022/04/30 10:55:38;;;;;;;;;;;15.30;99.90;;;;;;5063753;28;20136;-71
2022/04/30 10:58:04;;;;;;;;;;;15.30;99.90;;;;;;5063772;28;19921;-71
2022/04/30 11:00:31;;;;;;;;;;;15.30;99.90;;;;;;5046473;28;19921;-71
2022/04/30 11:03:07;;;;;;;;;;;15.40;99.90;;;;;;5062993;28;19921;-70
2022/04/30 11:05:33;;;;;;;;;;;15.30;99.90;;;;;;5061298;28;19924;-69
2022/04/30 11:08:03;;;;;;;;;;;15.30;99.90;;;;;;5062493;28;19921;-69
2022/04/30 11:10:31;;;;;;;;;;;15.20;99.90;;;;;;5062430;28;19921;-69
2022/04/30 11:13:04;;;;;;;;;;;15.10;99.90;;;;;;5063398;28;19920;-70
2022/04/30 11:15:31;;;;;;;;;;;15.10;99.90;;;;;;5058966;28;19927;-69
2022/04/30 11:17:58;;;;;;;;;;;15.00;99.90;;;;;;5062790;28;19928;-71
2022/04/30 11:20:25;;;;;;;;;;;14.90;99.90;;;;;;5061861;28;19935;-70
2022/04/30 11:22:53;;;;;;;;;;;14.80;99.90;;;;;;5062409;28;19921;-70
2022/04/30 11:25:19;;;;;;;;;;;14.80;99.90;;;;;;5057521;28;19921;-70
2022/04/30 11:27:47;;;;;;;;;;;14.80;99.90;;;;;;5061961;28;19927;-70
2022/04/30 11:30:14;;;;;;;;;;;14.80;99.90;;;;;;5062824;28;19921;-70
2022/04/30 11:32:47;;;;;;;;;;;14.90;99.90;;;;;;5062499;28;20208;-70
2022/04/30 11:35:16;;;;;;;;;;;15.00;99.90;;;;;;5059065;28;19928;-69
2022/04/30 11:37:43;;;;;;;;;;;15.00;99.90;;;;;;5058151;28;20123;-70
2022/04/30 11:40:11;;;;;;;;;;;15.10;99.90;;;;;;5062365;28;20148;-70
2022/04/30 11:42:37;;;;;;;;;;;15.10;99.90;;;;;;5062663;28;19927;-70
2022/04/30 11:45:06;;;;;;;;;;;15.20;99.90;;;;;;5062327;28;20231;-70
2022/04/30 11:47:32;;;;;;;;;;;15.10;99.90;;;;;;5061959;28;19928;-70
2022/04/30 11:50:03;;;;;;;;;;;15.20;99.90;;;;;;5062247;28;19944;-70
2022/04/30 11:52:30;;;;;;;;;;;15.10;99.90;;;;;;5059745;28;19921;-69
2022/04/30 11:54:56;;;;;;;;;;;15.00;99.90;;;;;;5062178;28;20167;-69
2022/04/30 11:57:23;;;;;;;;;;;15.00;99.90;;;;;;5061518;28;19927;-69
2022/04/30 11:59:49;;;;;;;;;;;14.90;99.90;;;;;;5061951;28;19921;-71
2022/04/30 12:02:17;;;;;;;;;;;14.80;99.90;;;;;;5062587;28;20188;-71
2022/04/30 12:04:45;;;;;;;;;;;14.70;99.90;;;;;;5059388;28;19943;-71
2022/04/30 12:07:12;;;;;;;;;;;14.60;99.90;;;;;;5061772;28;19928;-71
2022/04/30 12:09:44;;;;;;;;;;;14.50;99.90;;;;;;5062349;28;19927;-70
2022/04/30 12:12:17;;;;;;;;;;;14.30;99.90;;;;;;5062060;28;20234;-70
2022/04/30 12:14:47;;;;;;;;;;;14.20;99.90;;;;;;5062585;28;19921;-72
2022/04/30 12:17:14;;;;;;;;;;;14.10;99.90;;;;;;5061857;28;19921;-70
2022/04/30 12:25:14;;;;;;;;;;;13.90;99.90;;;;;;5062363;28;19923;-70
2022/04/30 12:27:41;;;;;;;;;;;13.70;99.90;;;;;;5062147;28;19921;-71
2022/04/30 12:30:12;;;;;;;;;;;13.50;99.90;;;;;;5062540;28;19928;-70
2022/04/30 12:32:49;;;;;;;;;;;13.30;99.90;;;;;;5065962;28;19928;-70
2022/04/30 12:35:24;;;;;;;;;;;13.30;99.90;;;;;;5064931;28;20223;-70
2022/04/30 12:38:01;;;;;;;;;;;13.20;99.90;;;;;;5075257;28;20208;-70
2022/04/30 12:40:28;;;;;;;;;;;13.10;99.90;;;;;;5071588;28;19943;-70
2022/04/30 12:42:55;;;;;;;;;;;13.20;99.90;;;;;;5072375;28;19980;-70
2022/04/30 12:45:21;;;;;;;;;;;13.10;99.90;;;;;;5072341;28;19929;-70
2022/04/30 12:47:49;;;;;;;;;;;13.20;99.90;;;;;;5065279;28;19928;-70
2022/04/30 12:50:17;;;;;;;;;;;13.20;99.90;;;;;;5074473;28;19927;-70
2022/04/30 12:52:43;;;;;;;;;;;13.20;99.90;;;;;;5073236;28;19920;-70
2022/04/30 12:55:11;;;;;;;;;;;13.20;99.90;;;;;;5076965;28;19927;-70
2022/04/30 12:57:38;;;;;;;;;;;13.40;99.90;;;;;;5065020;28;19921;-70
2022/04/30 13:00:06;;;;;;;;;;;13.50;99.90;;;;;;5067490;28;19927;-70
2022/04/30 13:02:32;;;;;;;;;;;13.60;99.90;;;;;;5068926;28;19927;-70
2022/04/30 13:04:59;;;;;;;;;;;13.70;99.90;;;;;;5073606;28;19935;-70
2022/04/30 13:07:28;;;;;;;;;;;13.70;99.90;;;;;;5062209;28;19928;-68
2022/04/30 13:15:22;;;;;;;;;;;14.10;99.90;;;;;;5058261;28;19923;-71
2022/04/30 13:17:50;;;;;;;;;;;14.10;99.90;;;;;;5062944;28;19921;-71
2022/04/30 13:20:17;;;;;;;;;;;14.20;99.90;;;;;;5065533;28;19959;-71
2022/04/30 13:22:45;;;;;;;;;;;14.20;99.90;;;;;;5065681;28;19928;-71
2022/04/30 13:25:11;;;;;;;;;;;14.20;99.90;;;;;;5065151;28;20112;-70
2022/04/30 13:27:38;;;;;;;;;;;14.10;99.90;;;;;;5064842;28;19920;-71
2022/04/30 13:30:05;;;;;;;;;;;14.10;99.90;;;;;;5065415;28;19987;-71
2022/04/30 13:32:39;;;;;;;;;;;14.10;99.90;;;;;;5065154;28;19921;-69
2022/04/30 13:35:07;;;;;;;;;;;14.00;99.90;;;;;;5064620;28;19928;-69
2022/04/30 13:37:33;;;;;;;;;;;14.00;99.90;;;;;;5064319;28;19920;-69
2022/04/30 13:40:01;;;;;;;;;;;14.00;99.90;;;;;;5064752;28;19921;-69
2022/04/30 13:42:28;;;;;;;;;;;14.00;99.90;;;;;;5064689;28;19927;-69
2022/04/30 13:44:54;;;;;;;;;;;14.00;99.90;;;;;;5064339;28;19921;-68
2022/04/30 13:47:21;;;;;;;;;;;13.90;99.90;;;;;;5064465;28;19928;-71
2022/04/30 13:49:47;;;;;;;;;;;14.00;99.90;;;;;;5063959;28;20235;-70
2022/04/30 13:52:14;;;;;;;;;;;14.00;99.90;;;;;;5064332;28;19921;-71
2022/04/30 13:54:40;;;;;;;;;;;14.00;99.90;;;;;;5064386;28;19929;-70
2022/04/30 13:57:09;;;;;;;;;;;14.10;99.90;;;;;;5063416;28;19927;-71
2022/04/30 13:59:35;;;;;;;;;;;14.20;99.90;;;;;;5064753;28;19931;-71
2022/04/30 14:02:04;;;;;;;;;;;14.20;99.90;;;;;;5062664;28;19921;-71
2022/04/30 14:04:34;;;;;;;;;;;14.40;99.90;;;;;;5064997;28;19927;-73
2022/04/30 14:07:00;;;;;;;;;;;14.50;99.90;;;;;;5052317;28;19934;-71
2022/04/30 14:09:27;;;;;;;;;;;14.80;99.90;;;;;;5064968;28;19921;-69
2022/04/30 14:11:54;;;;;;;;;;;15.00;99.90;;;;;;5061553;28;20114;-71
2022/04/30 14:18:15;;;;;;;;;;;15.70;99.90;;;;;;5062732;28;20226;-70
2022/04/30 14:19:53;;;;;;;;;;;16.00;99.90;;;;;;5050009;28;19952;-69
2022/04/30 14:22:20;;;;;;;;;;;16.30;99.90;;;;;;5064070;28;19921;-70
2022/04/30 14:24:47;;;;;;;;;;;16.60;99.90;;;;;;5063871;28;19959;-69
2022/04/30 14:27:14;;;;;;;;;;;16.80;99.90;;;;;;5062927;28;19984;-68
2022/04/30 14:29:42;;;;;;;;;;;17.00;99.90;;;;;;5063657;28;20212;-69
2022/04/30 14:32:09;;;;;;;;;;;17.00;99.90;;;;;;5061049;28;19928;-69
2022/04/30 14:34:35;;;;;;;;;;;16.70;99.90;;;;;;5063234;28;19920;-68
2022/04/30 14:37:02;;;;;;;;;;;16.50;99.90;;;;;;5063247;28;19927;-69
2022/04/30 14:39:29;;;;;;;;;;;16.30;99.90;;;;;;5063867;28;19927;-69
2022/04/30 14:41:55;;;;;;;;;;;16.10;99.90;;;;;;5063781;28;20144;-69
2022/04/30 14:44:22;;;;;;;;;;;15.80;99.90;;;;;;5063750;28;20143;-67
2022/04/30 14:46:50;;;;;;;;;;;15.60;99.90;;;;;;5063163;28;19921;-69
2022/04/30 14:49:16;;;;;;;;;;;15.60;99.90;;;;;;5063732;28;19925;-69
2022/04/30 14:51:43;;;;;;;;;;;15.70;99.90;;;;;;5063788;28;19920;-69
2022/04/30 14:54:09;;;;;;;;;;;15.90;99.90;;;;;;5063498;28;20175;-69
2022/04/30 14:56:36;;;;;;;;;;;15.90;99.90;;;;;;5062633;28;20094;-69
2022/04/30 14:59:04;;;;;;;;;;;15.70;99.90;;;;;;5063249;28;19927;-69
2022/04/30 15:01:30;;;;;;;;;;;15.40;99.90;;;;;;5063263;28;20222;-69
2022/04/30 15:03:58;;;;;;;;;;;15.20;99.90;;;;;;5063426;28;20112;-70
2022/04/30 15:06:25;;;;;;;;;;;14.80;99.90;;;;;;5044143;28;19921;-69
2022/04/30 15:08:51;;;;;;;;;;;14.70;99.90;;;;;;5063038;28;19921;-70